Alton, Indiana
Current Conditions -  °F | °C
As of 7:58 PM on Wednesday 26 Nov 2014 (Local Time) from KFTK Reporting Station
Broken Clouds Broken Clouds  
Wind Chill: 31°   Ceiling: 8000
Heat Index: 36°   Visibility: 10mi
Dew Point: 28°   Wind: 6mph
Humidity: 73%   Direction: 270°W
Pressure: 30.02"   Gusts: NA
Location:  38.1914°N, 86.3619°W
Report Text: KFTK 270058Z AUTO 27005KT 10SM FEW060 BKN080 BKN090 02/M02 A3002 RMK AO2 SLP177 T00231021
Loading
Personal Weather Stations






























Interactive Weather Map New forecast layout! Learn more

10-Day Weather Forecast

Advertisements
Track Severe Weather on mobile